Terminal Aerodrome Forecast
Issued by NWS

Home | Current Version | Previous Version | Text Only | Print | Product List | Glossary On
Versions: 1 2 3 4 5 6 7 8 9 10 11 12 13 14 15 16 17 18 19 20 21
000
FTUS41 KCAR 312325
TAFFVE
TAF
KFVE 312325Z 0100/0124 27006KT P6SM SCT070
     FM011400 24008KT P6SM VCSH BKN050
     FM011800 24010KT P6SM VCTS BKN040CB=

USA.gov is the U.S. government's official web portal to all federal, state and local government web resources and services.